sensor_id;sensor_type;location;lat;lon;timestamp;P1;P2;P0
45312;PMS7003;68267;51.540;5.854;2023-05-18T00:01:35;2.64;5.68;4.15
45312;PMS7003;68267;51.540;5.854;2023-05-18T00:14:54;2.28;5.35;3.82
45312;PMS7003;68267;51.540;5.854;2023-05-18T00:28:14;3.73;5.13;4.26
45312;PMS7003;68267;51.540;5.854;2023-05-18T00:41:34;5.41;5.35;4.91
45312;PMS7003;68267;51.540;5.854;2023-05-18T00:54:53;4.21;5.24;4.15
45312;PMS7003;68267;51.540;5.854;2023-05-18T01:08:13;2.4;5.46;4.7
45312;PMS7003;68267;51.540;5.854;2023-05-18T01:21:33;5.77;5.68;5.13
45312;PMS7003;68267;51.540;5.854;2023-05-18T01:34:52;4.21;6.0;5.13
45312;PMS7003;68267;51.540;5.854;2023-05-18T01:48:12;3.12;6.11;5.46
45312;PMS7003;68267;51.540;5.854;2023-05-18T02:01:31;6.37;6.55;5.9
45312;PMS7003;68267;51.540;5.854;2023-05-18T02:14:51;4.45;7.31;6.11
45312;PMS7003;68267;51.540;5.854;2023-05-18T02:28:11;4.45;7.31;6.11
45312;PMS7003;68267;51.540;5.854;2023-05-18T02:41:31;5.29;7.31;6.33
45312;PMS7003;68267;51.540;5.854;2023-05-18T02:54:50;5.05;7.86;6.55
45312;PMS7003;68267;51.540;5.854;2023-05-18T03:08:10;6.61;7.53;6.22
45312;PMS7003;68267;51.540;5.854;2023-05-18T03:21:30;5.65;8.4;7.2
45312;PMS7003;68267;51.540;5.854;2023-05-18T03:34:49;12.61;8.95;7.75
45312;PMS7003;68267;51.540;5.854;2023-05-18T03:48:09;12.13;9.71;8.29
45312;PMS7003;68267;51.540;5.854;2023-05-18T04:01:29;6.01;8.73;7.64
45312;PMS7003;68267;51.540;5.854;2023-05-18T04:14:48;7.21;9.82;8.4
45312;PMS7003;68267;51.540;5.854;2023-05-18T04:28:08;7.57;10.15;8.4
45312;PMS7003;68267;51.540;5.854;2023-05-18T04:41:28;8.77;10.69;8.95
45312;PMS7003;68267;51.540;5.854;2023-05-18T04:54:48;10.57;10.69;8.73
45312;PMS7003;68267;51.540;5.854;2023-05-18T05:08:07;10.57;10.69;8.84
45312;PMS7003;68267;51.540;5.854;2023-05-18T05:21:27;9.49;11.02;8.84
45312;PMS7003;68267;51.540;5.854;2023-05-18T05:34:47;6.97;8.95;8.08
45312;PMS7003;68267;51.540;5.854;2023-05-18T05:48:07;10.33;10.47;7.97
45312;PMS7003;68267;51.540;5.854;2023-05-18T06:01:27;8.17;8.29;7.2
45312;PMS7003;68267;51.540;5.854;2023-05-18T06:14:46;6.85;7.2;5.79
45312;PMS7003;68267;51.540;5.854;2023-05-18T06:28:06;4.33;7.2;5.35
45312;PMS7003;68267;51.540;5.854;2023-05-18T06:41:26;3.97;6.88;5.24
45312;PMS7003;68267;51.540;5.854;2023-05-18T06:54:46;3.97;6.88;5.13
45312;PMS7003;68267;51.540;5.854;2023-05-18T07:08:06;13.69;6.55;5.13
45312;PMS7003;68267;51.540;5.854;2023-05-18T07:21:26;5.41;5.9;4.37
45312;PMS7003;68267;51.540;5.854;2023-05-18T07:34:45;2.64;5.68;4.37
45312;PMS7003;68267;51.540;5.854;2023-05-18T07:48:05;6.85;5.68;3.82
45312;PMS7003;68267;51.540;5.854;2023-05-18T08:01:25;2.4;5.46;4.15
45312;PMS7003;68267;51.540;5.854;2023-05-18T08:14:45;2.64;5.68;4.15
45312;PMS7003;68267;51.540;5.854;2023-05-18T08:28:04;6.37;5.68;4.48
45312;PMS7003;68267;51.540;5.854;2023-05-18T08:41:24;9.73;6.33;4.37
45312;PMS7003;68267;51.540;5.854;2023-05-18T08:54:44;2.88;5.9;4.37
45312;PMS7003;68267;51.540;5.854;2023-05-18T09:08:04;3.24;6.22;5.02
45312;PMS7003;68267;51.540;5.854;2023-05-18T09:21:23;2.52;5.57;4.59
45312;PMS7003;68267;51.540;5.854;2023-05-18T09:34:43;3.24;6.22;4.48
45312;PMS7003;68267;51.540;5.854;2023-05-18T09:48:03;2.16;5.24;4.37
45312;PMS7003;68267;51.540;5.854;2023-05-18T10:01:22;5.05;6.55;5.02
45312;PMS7003;68267;51.540;5.854;2023-05-18T10:14:42;2.52;5.57;4.8
45312;PMS7003;68267;51.540;5.854;2023-05-18T10:28:02;9.97;6.55;5.02
45312;PMS7003;68267;51.540;5.854;2023-05-18T10:41:22;2.76;5.79;4.8
45312;PMS7003;68267;51.540;5.854;2023-05-18T10:54:42;2.76;5.79;5.24
45312;PMS7003;68267;51.540;5.854;2023-05-18T11:08:01;4.33;7.2;6.33
45312;PMS7003;68267;51.540;5.854;2023-05-18T11:21:21;3.97;6.88;5.79
45312;PMS7003;68267;51.540;5.854;2023-05-18T11:34:41;5.65;6.44;5.35
45312;PMS7003;68267;51.540;5.854;2023-05-18T11:48:00;3.0;6.0;5.24
45312;PMS7003;68267;51.540;5.854;2023-05-18T12:01:20;3.24;6.22;5.46
45312;PMS7003;68267;51.540;5.854;2023-05-18T12:14:40;7.69;7.42;6.0
45312;PMS7003;68267;51.540;5.854;2023-05-18T12:28:00;4.09;6.99;5.57
45312;PMS7003;68267;51.540;5.854;2023-05-18T12:41:20;4.09;6.99;6.33
45312;PMS7003;68267;51.540;5.854;2023-05-18T12:54:39;4.93;7.75;6.66
45312;PMS7003;68267;51.540;5.854;2023-05-18T13:07:59;9.01;7.31;6.44
45312;PMS7003;68267;51.540;5.854;2023-05-18T13:21:18;8.05;8.18;6.88
45312;PMS7003;68267;51.540;5.854;2023-05-18T13:34:38;5.17;7.97;6.33
45312;PMS7003;68267;51.540;5.854;2023-05-18T13:47:58;8.05;7.86;6.66
45312;PMS7003;68267;51.540;5.854;2023-05-18T14:01:17;5.17;7.97;6.99
45312;PMS7003;68267;51.540;5.854;2023-05-18T14:14:37;4.57;7.42;6.55
45312;PMS7003;68267;51.540;5.854;2023-05-18T14:27:57;10.21;6.66;5.9
45312;PMS7003;68267;51.540;5.854;2023-05-18T14:41:16;4.69;7.53;6.66
45312;PMS7003;68267;51.540;5.854;2023-05-18T14:54:36;7.45;7.42;6.77
45312;PMS7003;68267;51.540;5.854;2023-05-18T15:07:56;4.33;7.2;6.33
45312;PMS7003;68267;51.540;5.854;2023-05-18T15:21:15;7.45;7.64;6.77
45312;PMS7003;68267;51.540;5.854;2023-05-18T15:34:35;3.36;6.33;5.68
45312;PMS7003;68267;51.540;5.854;2023-05-18T15:47:55;7.57;8.08;6.66
45312;PMS7003;68267;51.540;5.854;2023-05-18T16:01:15;9.49;8.51;6.88
45312;PMS7003;68267;51.540;5.854;2023-05-18T16:14:34;5.89;8.62;7.31
45312;PMS7003;68267;51.540;5.854;2023-05-18T16:27:54;4.93;7.75;6.99
45312;PMS7003;68267;51.540;5.854;2023-05-18T16:41:14;6.97;8.62;7.31
45312;PMS7003;68267;51.540;5.854;2023-05-18T16:54:33;5.17;7.97;6.99
45312;PMS7003;68267;51.540;5.854;2023-05-18T17:07:53;4.69;7.53;6.88
45312;PMS7003;68267;51.540;5.854;2023-05-18T17:21:13;4.81;7.64;6.88
45312;PMS7003;68267;51.540;5.854;2023-05-18T17:34:33;8.41;8.18;7.31
45312;PMS7003;68267;51.540;5.854;2023-05-18T17:47:52;5.53;8.29;7.75
45312;PMS7003;68267;51.540;5.854;2023-05-18T18:01:12;8.41;8.95;7.86
45312;PMS7003;68267;51.540;5.854;2023-05-18T18:14:32;6.13;8.84;8.08
45312;PMS7003;68267;51.540;5.854;2023-05-18T18:27:52;5.53;8.29;7.42
45312;PMS7003;68267;51.540;5.854;2023-05-18T18:41:11;7.33;8.18;7.42
45312;PMS7003;68267;51.540;5.854;2023-05-18T18:54:31;8.29;8.51;7.97
45312;PMS7003;68267;51.540;5.854;2023-05-18T19:07:51;7.69;8.62;8.08
45312;PMS7003;68267;51.540;5.854;2023-05-18T19:21:10;6.61;9.27;8.51
45312;PMS7003;68267;51.540;5.854;2023-05-18T19:34:30;6.37;9.06;8.73
45312;PMS7003;68267;51.540;5.854;2023-05-18T19:47:50;8.05;10.58;9.49
45312;PMS7003;68267;51.540;5.854;2023-05-18T20:01:09;6.85;9.49;8.95
45312;PMS7003;68267;51.540;5.854;2023-05-18T20:14:29;7.69;10.26;9.49
45312;PMS7003;68267;51.540;5.854;2023-05-18T20:27:49;7.81;10.36;9.82
45312;PMS7003;68267;51.540;5.854;2023-05-18T20:41:09;8.65;11.13;9.93
45312;PMS7003;68267;51.540;5.854;2023-05-18T20:54:28;8.77;11.24;10.8
45312;PMS7003;68267;51.540;5.854;2023-05-18T21:07:48;9.97;12.33;11.67
45312;PMS7003;68267;51.540;5.854;2023-05-18T21:21:08;11.29;13.53;12.22
45312;PMS7003;68267;51.540;5.854;2023-05-18T21:34:27;13.69;14.18;12.76
45312;PMS7003;68267;51.540;5.854;2023-05-18T21:47:47;12.25;14.4;13.53
45312;PMS7003;68267;51.540;5.854;2023-05-18T22:01:07;12.49;14.62;13.63
45312;PMS7003;68267;51.540;5.854;2023-05-18T22:14:27;13.93;14.4;13.42
45312;PMS7003;68267;51.540;5.854;2023-05-18T22:27:46;12.49;14.62;13.96
45312;PMS7003;68267;51.540;5.854;2023-05-18T22:41:06;12.25;14.4;13.42
45312;PMS7003;68267;51.540;5.854;2023-05-18T22:54:26;13.21;14.29;13.31
45312;PMS7003;68267;51.540;5.854;2023-05-18T23:07:45;11.05;13.31;12.44
45312;PMS7003;68267;51.540;5.854;2023-05-18T23:21:05;11.41;13.63;12.87
45312;PMS7003;68267;51.540;5.854;2023-05-18T23:34:25;10.57;12.87;11.89
45312;PMS7003;68267;51.540;5.854;2023-05-18T23:47:45;11.77;13.96;13.09
